Time;durP1;ratioP1;P1;durP2;ratioP2;P2;SDS_P1;SDS_P2;PMS_P1;PMS_P2;Temp;Humidity;BMP_temperature;BMP_pressure;BME280_temperature;BME280_humidity;BME280_pressure;Samples;Min_cycle;Max_cycle;Signal;HPM_P1;HPM_P2
2022/01/14 00:02:06;;;;;;;38.80;21.53;;;-1.20;99.90;;;;;;5012598;28;20327;-69
2022/01/14 00:04:32;;;;;;;41.20;22.50;;;-1.20;99.90;;;;;;5012108;28;20295;-69
2022/01/14 00:06:58;;;;;;;46.43;22.87;;;-1.20;99.90;;;;;;5012498;28;20173;-70
2022/01/14 00:09:24;;;;;;;43.50;20.93;;;-1.10;99.90;;;;;;5012346;28;20184;-69
2022/01/14 00:11:54;;;;;;;46.30;21.40;;;-0.90;99.90;;;;;;5012523;28;20178;-69
2022/01/14 00:14:24;;;;;;;37.63;21.23;;;-0.80;99.90;;;;;;5012062;28;20177;-70
2022/01/14 00:16:51;;;;;;;47.13;22.87;;;-0.90;99.90;;;;;;5012567;28;20232;-70
2022/01/14 00:19:17;;;;;;;46.50;23.47;;;-1.10;99.90;;;;;;5012415;28;20647;-69
2022/01/14 00:21:45;;;;;;;46.13;24.00;;;-1.20;99.90;;;;;;5012368;28;20188;-69
2022/01/14 00:31:39;;;;;;;42.53;23.83;;;-1.20;99.90;;;;;;5011946;28;20201;-70
2022/01/14 00:32:38;;;;;;;50.43;24.57;;;-1.00;99.90;;;;;;5012083;28;20201;-69
2022/01/14 00:35:04;;;;;;;46.10;23.43;;;-1.10;99.90;;;;;;5010738;28;20196;-69
2022/01/14 00:37:30;;;;;;;41.40;22.37;;;-1.00;99.90;;;;;;5012167;28;20181;-69
2022/01/14 00:39:55;;;;;;;50.17;24.47;;;-1.00;99.90;;;;;;5025526;28;20184;-69
2022/01/14 00:42:21;;;;;;;43.73;21.90;;;-1.10;99.90;;;;;;5031769;28;20196;-69
2022/01/14 00:44:48;;;;;;;34.53;18.60;;;-1.10;99.90;;;;;;5016656;28;20672;-69
2022/01/14 00:47:13;;;;;;;35.33;19.17;;;-0.90;99.90;;;;;;5012085;28;20211;-69
2022/01/14 00:49:39;;;;;;;34.43;20.60;;;-0.90;99.90;;;;;;5020255;28;20200;-69
2022/01/14 00:52:05;;;;;;;36.10;20.70;;;-1.00;99.90;;;;;;5036527;28;20208;-69
2022/01/14 00:54:31;;;;;;;37.00;21.53;;;-1.10;99.90;;;;;;5011713;28;20215;-69
2022/01/14 00:59:34;;;;;;;36.40;20.90;;;-1.20;99.90;;;;;;5011806;28;20613;-69
2022/01/14 01:02:01;;;;;;;42.37;21.63;;;-1.20;99.90;;;;;;5011670;28;20225;-69
2022/01/14 01:04:32;;;;;;;45.97;23.20;;;-1.10;99.90;;;;;;5020198;28;20290;-69
2022/01/14 01:07:00;;;;;;;42.27;22.70;;;-1.00;99.90;;;;;;5051292;28;20678;-69
2022/01/14 01:09:26;;;;;;;40.17;20.83;;;-1.00;99.90;;;;;;5031868;28;20180;-69
2022/01/14 01:12:25;;;;;;;40.17;21.70;;;-0.90;99.90;;;;;;5029936;28;20212;-69
2022/01/14 01:14:46;;;;;;;33.10;20.50;;;-1.00;99.90;;;;;;5030414;28;20571;-69
2022/01/14 01:17:12;;;;;;;41.70;23.97;;;-1.10;99.90;;;;;;5027769;28;20189;-69
2022/01/14 01:19:38;;;;;;;41.20;22.77;;;-1.20;99.90;;;;;;5012060;28;20585;-69
2022/01/14 01:22:04;;;;;;;35.10;20.67;;;-1.20;99.90;;;;;;5011814;28;20702;-69
2022/01/14 01:24:30;;;;;;;37.97;21.83;;;-1.20;99.90;;;;;;5011372;28;20209;-69
2022/01/14 01:26:56;;;;;;;39.13;21.50;;;-1.20;99.90;;;;;;5011661;28;20256;-69
2022/01/14 01:31:54;;;;;;;35.23;19.70;;;-1.20;99.90;;;;;;5011876;28;20696;-69
2022/01/14 01:34:22;;;;;;;39.17;21.07;;;-1.00;99.90;;;;;;5011351;28;20667;-70
2022/01/14 01:36:52;;;;;;;36.77;21.03;;;-1.00;99.90;;;;;;5011474;28;20193;-69
2022/01/14 01:39:20;;;;;;;37.67;19.83;;;-0.80;99.90;;;;;;5019932;28;20631;-69
2022/01/14 01:41:51;;;;;;;32.90;19.63;;;-0.90;99.90;;;;;;5031137;28;20173;-69
2022/01/14 01:44:19;;;;;;;35.77;18.87;;;-1.00;99.90;;;;;;5025487;28;20221;-69
2022/01/14 01:46:47;;;;;;;35.73;19.30;;;-0.90;99.90;;;;;;5013668;28;20219;-69
2022/01/14 01:49:15;;;;;;;40.43;20.77;;;-1.00;99.90;;;;;;5016213;28;20179;-69
2022/01/14 01:51:43;;;;;;;35.13;19.20;;;-1.10;99.90;;;;;;5054857;28;20325;-69
2022/01/14 01:54:09;;;;;;;41.43;22.00;;;-1.20;99.90;;;;;;5039966;28;20209;-69
2022/01/14 01:56:35;;;;;;;33.37;18.53;;;-1.20;99.90;;;;;;5014794;28;20184;-69
2022/01/14 01:59:00;;;;;;;36.80;18.67;;;-1.20;99.90;;;;;;5015005;28;20188;-69
2022/01/14 02:01:26;;;;;;;39.80;19.50;;;-1.10;99.90;;;;;;5016571;28;20276;-69
2022/01/14 02:03:55;;;;;;;42.03;20.30;;;-1.20;99.90;;;;;;5034386;28;20192;-69
2022/01/14 02:06:22;;;;;;;41.70;21.03;;;-1.10;99.90;;;;;;5031653;28;20208;-71
2022/01/14 02:08:48;;;;;;;39.37;20.50;;;-1.10;99.90;;;;;;5031325;28;20181;-71
2022/01/14 02:11:14;;;;;;;36.43;20.17;;;-1.10;99.90;;;;;;5016249;28;20220;-71
2022/01/14 02:13:40;;;;;;;23.70;12.67;;;-1.00;99.90;;;;;;5014541;28;20276;-72
2022/01/14 02:26:52;;;;;;;30.47;17.27;;;-1.50;99.90;;;;;;5014362;28;20614;-72
2022/01/14 02:29:18;;;;;;;45.33;21.90;;;-1.50;99.90;;;;;;5014406;28;20176;-72
2022/01/14 02:31:45;;;;;;;42.20;21.30;;;-1.50;99.90;;;;;;5014155;28;20189;-72
2022/01/14 02:34:13;;;;;;;39.23;21.23;;;-1.60;99.90;;;;;;5014126;28;20244;-72
2022/01/14 02:36:43;;;;;;;42.97;20.30;;;-1.60;99.90;;;;;;5014160;28;20177;-72
2022/01/14 02:39:10;;;;;;;40.60;22.10;;;-1.50;99.90;;;;;;5021417;28;20719;-72
2022/01/14 02:41:39;;;;;;;42.17;22.33;;;-1.50;99.90;;;;;;5028525;28;20711;-72
2022/01/14 02:44:10;;;;;;;38.63;20.53;;;-1.50;99.90;;;;;;5013888;28;20755;-72
2022/01/14 02:46:48;;;;;;;40.30;20.67;;;-1.50;99.90;;;;;;5013916;28;20169;-72
2022/01/14 02:49:14;;;;;;;37.80;20.43;;;-1.40;99.90;;;;;;5015381;28;20184;-72
2022/01/14 02:51:39;;;;;;;23.43;12.30;;;-1.40;99.90;;;;;;5035459;28;20181;-72
2022/01/14 02:54:14;;;;;;;33.33;18.67;;;-1.40;99.90;;;;;;5021065;28;20250;-73
2022/01/14 02:56:45;;;;;;;34.20;17.40;;;-1.30;99.90;;;;;;5024901;28;20230;-73
2022/01/14 02:59:12;;;;;;;35.07;18.27;;;-1.50;99.90;;;;;;5016674;28;20526;-73
2022/01/14 03:01:40;;;;;;;34.90;18.27;;;-1.60;99.90;;;;;;5041602;28;20279;-73
2022/01/14 03:04:07;;;;;;;36.97;19.67;;;-1.50;99.90;;;;;;5052923;28;20258;-72
2022/01/14 03:06:33;;;;;;;36.63;19.43;;;-1.50;99.90;;;;;;5052598;28;20175;-73
2022/01/14 03:08:59;;;;;;;36.83;19.37;;;-1.50;99.90;;;;;;5025972;28;20547;-73
2022/01/14 03:11:39;;;;;;;37.53;20.43;;;-1.40;99.90;;;;;;5022691;28;20196;-73
2022/01/14 03:14:05;;;;;;;34.90;20.60;;;-1.50;99.90;;;;;;5022480;28;20196;-73
2022/01/14 03:16:38;;;;;;;38.07;20.03;;;-1.50;99.90;;;;;;5025477;28;20176;-73
2022/01/14 03:19:08;;;;;;;37.13;19.63;;;-1.50;99.90;;;;;;5033236;28;20187;-73
2022/01/14 03:21:40;;;;;;;36.83;19.43;;;-1.50;99.90;;;;;;5026806;28;20255;-73
2022/01/14 03:27:00;;;;;;;39.43;19.00;;;-1.50;99.90;;;;;;5016160;28;20193;-74
2022/01/14 03:29:25;;;;;;;36.57;20.43;;;-1.50;99.90;;;;;;5013285;28;20591;-73
2022/01/14 03:31:51;;;;;;;34.60;17.77;;;-1.50;99.90;;;;;;5011867;28;20188;-73
2022/01/14 03:34:16;;;;;;;37.97;16.23;;;-1.60;99.90;;;;;;5012815;28;20209;-73
2022/01/14 03:36:42;;;;;;;38.37;19.53;;;-1.60;99.90;;;;;;5015608;28;20184;-73
2022/01/14 03:39:08;;;;;;;32.17;15.00;;;-1.50;99.90;;;;;;5013213;28;20186;-73
2022/01/14 03:41:33;;;;;;;34.37;16.97;;;-1.50;99.90;;;;;;5021574;28;20239;-73
2022/01/14 03:43:59;;;;;;;54.57;23.90;;;-1.50;99.90;;;;;;5018838;28;20209;-73
2022/01/14 03:46:25;;;;;;;43.97;22.33;;;-1.60;99.90;;;;;;5012913;28;20212;-73
2022/01/14 03:48:52;;;;;;;46.70;22.07;;;-1.60;99.90;;;;;;5012926;28;20620;-73
2022/01/14 03:51:22;;;;;;;41.50;21.00;;;-1.70;99.90;;;;;;5026666;28;20185;-73
2022/01/14 03:53:48;;;;;;;45.53;20.47;;;-1.70;99.90;;;;;;5012886;28;20252;-73
2022/01/14 03:56:14;;;;;;;45.90;21.57;;;-1.70;99.90;;;;;;5012571;28;20547;-73
2022/01/14 03:58:41;;;;;;;43.77;23.93;;;-1.70;99.90;;;;;;5013445;28;20216;-73
2022/01/14 04:01:08;;;;;;;43.37;21.00;;;-1.70;99.90;;;;;;5032329;28;20223;-73
2022/01/14 04:03:34;;;;;;;44.70;22.90;;;-1.70;99.90;;;;;;5031759;28;20203;-74
2022/01/14 04:05:59;;;;;;;41.30;22.37;;;-1.70;99.90;;;;;;5030147;28;20216;-73
2022/01/14 04:08:25;;;;;;;40.87;21.47;;;-1.60;99.90;;;;;;5031419;28;20173;-73
2022/01/14 04:10:53;;;;;;;40.60;20.33;;;-1.50;99.90;;;;;;5021376;28;20563;-73
2022/01/14 04:13:24;;;;;;;39.43;20.60;;;-1.40;99.90;;;;;;5011525;28;20205;-73
2022/01/14 04:15:50;;;;;;;36.03;19.27;;;-1.40;99.90;;;;;;5016901;28;20192;-73
2022/01/14 04:18:18;;;;;;;37.43;20.93;;;-1.40;99.90;;;;;;5032083;28;20180;-73
2022/01/14 04:20:54;;;;;;;36.53;19.17;;;-1.30;99.90;;;;;;5032202;28;20199;-73
2022/01/14 04:23:22;;;;;;;40.47;21.40;;;-1.30;99.90;;;;;;5012372;28;20220;-73
2022/01/14 04:25:53;;;;;;;37.57;19.77;;;-1.30;99.90;;;;;;5012025;28;20687;-73
2022/01/14 04:28:21;;;;;;;37.67;20.03;;;-1.20;99.90;;;;;;5013494;28;20205;-73
2022/01/14 04:30:47;;;;;;;42.63;20.40;;;-1.20;99.90;;;;;;5014682;28;20225;-73
2022/01/14 04:33:13;;;;;;;41.10;20.23;;;-1.20;99.90;;;;;;5012170;28;20695;-73
2022/01/14 04:35:39;;;;;;;37.87;19.70;;;-1.20;99.90;;;;;;5015679;28;20239;-73
2022/01/14 04:38:05;;;;;;;45.63;21.57;;;-1.30;99.90;;;;;;5013503;28;20197;-73
2022/01/14 04:40:31;;;;;;;42.20;21.00;;;-1.20;99.90;;;;;;5022443;28;20683;-73
2022/01/14 04:42:58;;;;;;;38.07;20.67;;;-1.20;99.90;;;;;;5029271;28;20204;-73
2022/01/14 04:47:55;;;;;;;40.10;21.47;;;-1.20;99.90;;;;;;5028293;28;20205;-72
2022/01/14 04:50:22;;;;;;;41.17;20.60;;;-1.10;99.90;;;;;;5025390;28;20697;-72
2022/01/14 04:52:48;;;;;;;43.60;21.93;;;-1.10;99.90;;;;;;5031699;28;20250;-72
2022/01/14 04:55:17;;;;;;;39.03;19.50;;;-1.10;99.90;;;;;;5021076;28;20187;-71
2022/01/14 04:57:43;;;;;;;40.33;20.43;;;-1.10;99.90;;;;;;5021650;28;20216;-72
2022/01/14 05:00:12;;;;;;;37.93;20.53;;;-1.00;99.90;;;;;;5029537;28;20192;-72
2022/01/14 05:02:37;;;;;;;35.83;18.47;;;-1.20;99.90;;;;;;5025652;28;20201;-72
2022/01/14 05:05:07;;;;;;;38.37;20.37;;;-1.20;99.90;;;;;;5014744;28;20231;-72
2022/01/14 05:07:34;;;;;;;40.40;21.63;;;-1.20;99.90;;;;;;5012008;28;20173;-72
2022/01/14 05:12:31;;;;;;;40.63;20.47;;;-1.50;99.90;;;;;;5011864;28;20193;-72
2022/01/14 05:14:57;;;;;;;39.53;21.10;;;-1.40;99.90;;;;;;5011685;28;20177;-72
2022/01/14 05:17:22;;;;;;;34.87;19.20;;;-1.40;99.90;;;;;;5026979;28;20678;-72
2022/01/14 05:19:49;;;;;;;41.27;20.83;;;-1.40;99.90;;;;;;5030378;28;20184;-72
2022/01/14 05:22:14;;;;;;;41.93;20.83;;;-1.30;99.90;;;;;;5033499;28;20177;-72
2022/01/14 05:24:40;;;;;;;41.97;22.50;;;-1.30;99.90;;;;;;5035152;28;20216;-72
2022/01/14 05:27:06;;;;;;;45.27;22.20;;;-1.40;99.90;;;;;;5020109;28;20189;-72
2022/01/14 05:29:32;;;;;;;38.07;20.27;;;-1.50;99.90;;;;;;5014975;28;20184;-71
2022/01/14 05:32:08;;;;;;;41.70;20.47;;;-1.50;99.90;;;;;;5015348;28;20315;-72
2022/01/14 05:34:35;;;;;;;38.13;18.43;;;-1.60;99.90;;;;;;5020230;28;20184;-72
2022/01/14 05:37:03;;;;;;;35.37;17.83;;;-1.40;99.90;;;;;;5023918;28;20191;-72
2022/01/14 05:39:29;;;;;;;38.60;20.47;;;-1.40;99.90;;;;;;5023088;28;20258;-72
2022/01/14 05:41:55;;;;;;;41.20;20.57;;;-1.40;99.90;;;;;;5015288;28;20204;-72
2022/01/14 05:44:23;;;;;;;33.17;18.77;;;-1.40;99.90;;;;;;5014964;28;20618;-72
2022/01/14 05:46:53;;;;;;;46.17;21.80;;;-1.50;99.90;;;;;;5028918;28;20176;-72
2022/01/14 05:49:20;;;;;;;39.93;20.47;;;-1.40;99.90;;;;;;5036049;28;20185;-72
2022/01/14 05:51:46;;;;;;;40.07;20.47;;;-1.40;99.90;;;;;;5049168;28;20185;-72
2022/01/14 05:54:12;;;;;;;42.53;20.53;;;-1.30;99.90;;;;;;5034169;28;20354;-72
2022/01/14 05:56:38;;;;;;;42.30;20.17;;;-1.50;99.90;;;;;;5027302;28;20186;-72
2022/01/14 05:59:04;;;;;;;45.47;21.90;;;-1.50;99.90;;;;;;5015785;28;20247;-72
2022/01/14 06:01:30;;;;;;;43.93;20.77;;;-1.50;99.90;;;;;;5014585;28;20216;-72
2022/01/14 06:04:05;;;;;;;43.27;21.87;;;-1.50;99.90;;;;;;5014780;28;20200;-72
2022/01/14 06:06:32;;;;;;;36.47;17.13;;;-1.60;99.90;;;;;;5023482;28;20235;-73
2022/01/14 06:08:58;;;;;;;44.03;20.77;;;-1.60;99.90;;;;;;5030402;28;20176;-72
2022/01/14 06:11:25;;;;;;;38.30;19.47;;;-1.60;99.90;;;;;;5027862;28;20181;-72
2022/01/14 06:13:51;;;;;;;37.70;19.07;;;-1.70;99.90;;;;;;5014596;28;20198;-72
2022/01/14 06:16:17;;;;;;;40.87;19.13;;;-1.70;99.90;;;;;;5022199;28;20170;-72
2022/01/14 06:18:43;;;;;;;44.47;21.47;;;-1.70;99.90;;;;;;5032618;28;20278;-72
2022/01/14 06:21:10;;;;;;;39.00;19.57;;;-1.70;99.90;;;;;;5031586;28;20553;-72
2022/01/14 06:23:35;;;;;;;44.27;22.73;;;-1.60;99.90;;;;;;5027770;28;20201;-72
2022/01/14 06:26:02;;;;;;;49.23;21.30;;;-1.60;99.90;;;;;;5022626;28;20201;-72
2022/01/14 06:28:28;;;;;;;48.93;25.87;;;-1.60;99.90;;;;;;5022164;28;20177;-72
2022/01/14 06:30:53;;;;;;;41.40;20.40;;;-1.70;99.90;;;;;;5024404;28;20174;-72
2022/01/14 06:33:19;;;;;;;44.33;22.47;;;-1.80;99.90;;;;;;5016865;28;20212;-72
2022/01/14 06:35:45;;;;;;;36.07;18.70;;;-1.70;99.90;;;;;;5021334;28;20181;-72
2022/01/14 06:38:11;;;;;;;40.77;19.90;;;-1.80;99.90;;;;;;5017939;28;20275;-72
2022/01/14 06:40:37;;;;;;;43.20;21.37;;;-1.70;99.90;;;;;;5020762;28;20201;-72
2022/01/14 06:43:05;;;;;;;45.47;22.00;;;-1.60;99.90;;;;;;5014112;28;20200;-72
2022/01/14 06:45:32;;;;;;;40.50;20.03;;;-1.60;99.90;;;;;;5013739;28;20236;-71
2022/01/14 06:47:58;;;;;;;42.13;19.90;;;-1.60;99.90;;;;;;5021086;28;20181;-71
2022/01/14 06:50:24;;;;;;;40.73;19.93;;;-1.50;99.90;;;;;;5036743;28;20650;-71
2022/01/14 06:52:50;;;;;;;42.87;20.37;;;-1.40;99.90;;;;;;5036350;28;20201;-71
2022/01/14 06:55:16;;;;;;;39.20;19.80;;;-1.40;99.90;;;;;;5018836;28;20177;-71
2022/01/14 06:57:42;;;;;;;43.83;21.23;;;-1.50;99.90;;;;;;5013624;28;20227;-72
2022/01/14 07:00:11;;;;;;;36.83;19.10;;;-1.50;99.90;;;;;;5013891;28;20205;-71
2022/01/14 07:02:37;;;;;;;37.23;20.30;;;-1.50;99.90;;;;;;5027280;28;20292;-71
2022/01/14 07:05:03;;;;;;;41.40;21.43;;;-1.70;99.90;;;;;;5024595;28;20554;-72
2022/01/14 07:07:29;;;;;;;36.00;19.77;;;-1.60;99.90;;;;;;5025566;28;20215;-71
2022/01/14 07:09:58;;;;;;;36.20;19.93;;;-1.70;99.90;;;;;;5015416;28;20185;-71
2022/01/14 07:12:38;;;;;;;39.30;20.57;;;-1.70;99.90;;;;;;5028992;28;20683;-72
2022/01/14 07:15:10;;;;;;;38.00;20.03;;;-1.70;99.90;;;;;;5032828;28;20199;-72
2022/01/14 07:17:37;;;;;;;37.40;21.00;;;-1.70;99.90;;;;;;5027924;28;20177;-72
2022/01/14 07:20:10;;;;;;;43.57;21.20;;;-1.80;99.90;;;;;;5012410;28;20703;-72
2022/01/14 07:22:36;;;;;;;40.33;21.17;;;-1.80;99.90;;;;;;5013334;28;20216;-72
2022/01/14 07:25:02;;;;;;;38.47;20.17;;;-1.90;99.90;;;;;;5012909;28;20683;-72
2022/01/14 07:27:28;;;;;;;42.27;21.80;;;-1.90;99.90;;;;;;5013240;28;20184;-72
2022/01/14 07:29:54;;;;;;;38.83;19.10;;;-1.80;99.90;;;;;;5013278;28;20256;-71
2022/01/14 07:32:20;;;;;;;32.83;17.40;;;-1.80;99.90;;;;;;5013334;28;20197;-72
2022/01/14 07:34:47;;;;;;;27.67;16.40;;;-1.80;99.90;;;;;;5027171;28;20287;-72
2022/01/14 07:37:13;;;;;;;27.03;15.87;;;-1.70;99.90;;;;;;5017745;28;20559;-72
2022/01/14 07:39:39;;;;;;;32.37;17.40;;;-1.70;99.90;;;;;;5013261;28;20248;-72
2022/01/14 07:42:05;;;;;;;31.33;16.93;;;-1.50;99.90;;;;;;5013177;28;20656;-72
2022/01/14 07:44:30;;;;;;;33.27;16.93;;;-1.60;99.90;;;;;;5012049;28;20211;-72
2022/01/14 07:46:56;;;;;;;29.50;17.53;;;-1.50;99.90;;;;;;5013038;28;20540;-72
2022/01/14 07:49:22;;;;;;;29.80;15.67;;;-1.50;99.90;;;;;;5016512;28;20257;-73
2022/01/14 07:51:47;;;;;;;23.67;14.47;;;-1.50;99.90;;;;;;5048753;28;20604;-75
2022/01/14 07:54:13;;;;;;;31.17;17.20;;;-1.40;99.90;;;;;;5030940;28;20217;-75
2022/01/14 07:56:45;;;;;;;32.20;17.43;;;-1.40;99.90;;;;;;5039120;28;20181;-76
2022/01/14 07:59:13;;;;;;;30.80;17.40;;;-1.40;99.90;;;;;;5032187;28;20169;-76
2022/01/14 08:01:40;;;;;;;32.87;17.03;;;-1.60;99.90;;;;;;5032086;28;20180;-77
2022/01/14 08:04:05;;;;;;;33.13;16.30;;;-1.60;99.90;;;;;;5019048;28;20189;-73
2022/01/14 08:06:34;;;;;;;28.83;14.83;;;-1.50;99.90;;;;;;5012656;28;20612;-74
2022/01/14 08:09:00;;;;;;;31.00;16.60;;;-1.40;99.90;;;;;;5035458;28;20439;-73
2022/01/14 08:11:26;;;;;;;29.50;16.60;;;-1.20;99.90;;;;;;5021608;28;20177;-73
2022/01/14 08:13:51;;;;;;;31.27;16.70;;;-1.10;99.90;;;;;;5029596;28;20195;-73
2022/01/14 08:16:17;;;;;;;31.23;16.00;;;-1.20;99.90;;;;;;5030375;28;20177;-73
2022/01/14 08:18:43;;;;;;;34.17;17.47;;;-1.20;99.90;;;;;;5025214;28;20180;-73
2022/01/14 08:21:08;;;;;;;31.03;17.97;;;-1.10;99.90;;;;;;5026361;28;20219;-73
2022/01/14 08:23:34;;;;;;;35.17;18.77;;;-0.90;99.90;;;;;;5032086;28;20671;-76
2022/01/14 08:26:00;;;;;;;33.53;16.83;;;-1.10;99.90;;;;;;5029542;28;20205;-73
2022/01/14 08:28:27;;;;;;;30.17;16.87;;;-1.10;99.90;;;;;;5030809;28;20181;-75
2022/01/14 08:30:53;;;;;;;29.73;16.87;;;-1.00;99.90;;;;;;5030596;28;20172;-72
2022/01/14 08:33:19;;;;;;;33.57;17.73;;;-0.70;99.90;;;;;;5023634;28;20726;-72
2022/01/14 08:35:45;;;;;;;29.43;16.93;;;-0.60;99.90;;;;;;5015197;28;20181;-72
2022/01/14 08:38:11;;;;;;;26.10;17.03;;;-0.50;99.90;;;;;;5022999;28;20260;-72
2022/01/14 08:40:37;;;;;;;35.10;19.40;;;-0.40;99.90;;;;;;5021954;28;20267;-72
2022/01/14 08:43:03;;;;;;;27.60;17.97;;;-0.40;99.90;;;;;;5020609;28;20197;-72
2022/01/14 08:45:28;;;;;;;32.97;19.00;;;-0.40;99.90;;;;;;5019326;28;20201;-72
2022/01/14 08:47:55;;;;;;;29.33;16.47;;;-0.50;99.90;;;;;;5020670;28;20201;-72
2022/01/14 08:50:23;;;;;;;27.77;17.20;;;-0.50;99.90;;;;;;5025814;28;20169;-70
2022/01/14 08:52:49;;;;;;;27.40;16.53;;;-0.20;99.90;;;;;;5016134;28;20200;-70
2022/01/14 08:55:17;;;;;;;30.03;17.17;;;-0.20;99.90;;;;;;5024435;28;20177;-70
2022/01/14 08:57:44;;;;;;;29.57;17.97;;;-0.40;99.90;;;;;;5028091;28;20172;-70
2022/01/14 09:00:11;;;;;;;31.20;17.10;;;-0.40;99.90;;;;;;5019034;28;20197;-70
2022/01/14 09:02:36;;;;;;;31.07;17.80;;;-0.50;99.90;;;;;;5021663;28;20206;-69
2022/01/14 09:05:03;;;;;;;33.70;19.00;;;-0.20;99.90;;;;;;5023331;28;20193;-69
2022/01/14 09:07:29;;;;;;;32.53;18.00;;;-0.30;99.90;;;;;;5015838;28;20235;-71
2022/01/14 09:09:55;;;;;;;35.17;18.70;;;-0.40;99.90;;;;;;5014466;28;20181;-71
2022/01/14 09:12:21;;;;;;;26.43;17.23;;;-0.30;99.90;;;;;;5015784;28;20679;-71
2022/01/14 09:14:46;;;;;;;27.77;16.73;;;-0.30;99.90;;;;;;5022659;28;20181;-70
2022/01/14 09:17:13;;;;;;;28.73;16.90;;;-0.10;99.90;;;;;;5023568;28;20184;-70
2022/01/14 09:19:39;;;;;;;27.13;16.20;;;0.10;99.90;;;;;;5024860;28;20195;-71
2022/01/14 09:22:06;;;;;;;30.77;18.43;;;0.40;99.90;;;;;;5023266;28;20181;-70
2022/01/14 09:24:32;;;;;;;30.33;17.53;;;0.40;99.90;;;;;;5027246;28;20675;-70
2022/01/14 09:26:58;;;;;;;32.50;18.27;;;0.30;99.90;;;;;;5017276;28;20256;-71
2022/01/14 09:29:23;;;;;;;31.87;17.40;;;0.30;99.90;;;;;;5027969;28;20173;-70
2022/01/14 09:31:49;;;;;;;30.20;17.27;;;0.10;99.90;;;;;;5035126;28;20169;-70
2022/01/14 09:34:14;;;;;;;28.87;16.33;;;0.00;99.90;;;;;;5026696;28;20200;-70
2022/01/14 09:36:40;;;;;;;29.73;16.43;;;0.20;99.90;;;;;;5031058;28;20195;-70
2022/01/14 09:39:07;;;;;;;31.87;17.93;;;0.30;99.90;;;;;;5022828;28;20255;-70
2022/01/14 09:41:32;;;;;;;30.17;16.23;;;0.30;99.90;;;;;;5024556;28;20164;-71
2022/01/14 09:43:58;;;;;;;31.70;17.87;;;0.40;99.90;;;;;;5022657;28;20200;-71
2022/01/14 09:46:24;;;;;;;32.53;17.73;;;0.40;99.90;;;;;;5024856;28;20555;-70
2022/01/14 09:48:50;;;;;;;35.73;18.73;;;0.60;99.90;;;;;;5023505;28;20177;-70
2022/01/14 09:51:16;;;;;;;26.90;16.33;;;0.60;99.90;;;;;;5030366;28;20174;-71
2022/01/14 09:53:42;;;;;;;30.63;18.13;;;0.90;99.90;;;;;;5020586;28;20755;-70
2022/01/14 09:56:07;;;;;;;31.07;18.37;;;0.70;99.90;;;;;;5023076;28;20255;-69
2022/01/14 09:58:37;;;;;;;28.83;17.40;;;0.70;99.90;;;;;;5024892;28;20694;-72
2022/01/14 10:01:22;;;;;;;30.20;18.43;;;0.70;99.90;;;;;;5023760;28;20192;-69
2022/01/14 10:03:55;;;;;;;29.60;18.87;;;1.00;99.90;;;;;;5023009;28;20209;-70
2022/01/14 10:06:43;;;;;;;29.50;19.10;;;1.10;99.90;;;;;;5014155;28;20205;-70
2022/01/14 10:09:17;;;;;;;28.13;17.73;;;1.10;99.90;;;;;;5019191;28;20263;-70
2022/01/14 10:11:57;;;;;;;31.77;16.63;;;1.20;99.90;;;;;;5034469;28;20631;-70
2022/01/14 10:14:23;;;;;;;30.17;18.50;;;1.60;99.90;;;;;;5014313;28;20185;-70
2022/01/14 10:16:54;;;;;;;26.03;16.63;;;1.60;99.90;;;;;;5014701;28;20177;-71
2022/01/14 10:19:25;;;;;;;29.17;18.60;;;1.50;99.90;;;;;;5020189;28;20169;-72
2022/01/14 10:21:51;;;;;;;32.90;18.53;;;1.50;99.90;;;;;;5021923;28;20177;-71
2022/01/14 10:24:18;;;;;;;26.23;17.23;;;1.70;99.90;;;;;;5017908;28;20208;-71
2022/01/14 10:26:50;;;;;;;24.83;17.30;;;1.60;99.90;;;;;;5022250;28;20208;-71
2022/01/14 10:29:32;;;;;;;30.00;18.27;;;1.80;99.90;;;;;;5024646;28;20167;-70
2022/01/14 10:32:00;;;;;;;27.77;17.93;;;2.10;99.90;;;;;;5023821;28;20242;-70
2022/01/14 10:34:26;;;;;;;31.37;18.57;;;2.30;99.90;;;;;;5022495;28;20184;-72
2022/01/14 10:37:14;;;;;;;30.23;18.67;;;2.20;99.90;;;;;;5027107;28;20227;-72
2022/01/14 10:39:58;;;;;;;30.20;19.83;;;1.90;99.90;;;;;;5029848;28;20181;-72
2022/01/14 10:42:26;;;;;;;32.37;19.50;;;1.80;99.90;;;;;;5034055;28;20200;-74
2022/01/14 10:44:53;;;;;;;28.90;17.50;;;2.00;99.90;;;;;;5024220;28;20204;-74
2022/01/14 10:47:24;;;;;;;25.37;17.33;;;2.30;99.90;;;;;;5021752;28;20704;-74
2022/01/14 10:49:55;;;;;;;32.40;19.23;;;2.50;99.90;;;;;;5039684;28;20172;-75
2022/01/14 10:52:23;;;;;;;30.07;18.20;;;2.30;99.90;;;;;;5020512;28;20605;-74
2022/01/14 10:54:51;;;;;;;29.73;18.17;;;2.40;99.90;;;;;;5020649;28;20165;-74
2022/01/14 10:57:26;;;;;;;29.67;18.83;;;2.80;99.90;;;;;;5023024;28;20184;-74
2022/01/14 11:00:12;;;;;;;27.20;18.00;;;2.70;99.90;;;;;;5022165;28;20334;-74
2022/01/14 11:02:45;;;;;;;30.53;17.77;;;2.80;99.90;;;;;;5024766;28;20204;-73
2022/01/14 11:05:19;;;;;;;30.47;19.60;;;2.80;99.90;;;;;;5021641;28;20197;-74
2022/01/14 11:07:47;;;;;;;28.37;17.87;;;2.60;99.90;;;;;;5022378;28;20360;-74
2022/01/14 11:10:33;;;;;;;30.07;18.60;;;2.40;99.90;;;;;;5022907;28;20193;-74
2022/01/14 11:13:01;;;;;;;30.63;17.73;;;2.40;99.90;;;;;;5026330;28;20216;-74
2022/01/14 11:15:31;;;;;;;29.10;17.80;;;2.20;99.90;;;;;;5021153;28;20204;-74
2022/01/14 11:18:00;;;;;;;34.93;19.77;;;2.00;99.90;;;;;;5023670;28;20226;-74
2022/01/14 11:20:34;;;;;;;31.03;19.57;;;1.80;99.90;;;;;;5022662;28;20193;-74
2022/01/14 11:23:16;;;;;;;32.53;17.83;;;1.70;99.90;;;;;;5021539;28;20233;-74
2022/01/14 11:25:44;;;;;;;32.83;19.33;;;1.60;99.90;;;;;;5021518;28;20623;-74
2022/01/14 11:28:15;;;;;;;28.93;18.83;;;1.80;99.90;;;;;;5023471;28;20522;-74
2022/01/14 11:30:41;;;;;;;33.80;18.87;;;2.00;99.90;;;;;;5027053;28;20182;-73
2022/01/14 11:33:09;;;;;;;29.57;18.97;;;2.10;99.90;;;;;;5013310;28;20204;-73
2022/01/14 11:35:37;;;;;;;32.63;20.80;;;2.30;99.90;;;;;;5013064;28;20201;-74
2022/01/14 11:38:55;;;;;;;32.30;20.40;;;2.30;99.90;;;;;;5011920;28;20271;-74
2022/01/14 11:41:57;;;;;;;25.73;16.27;;;2.20;99.90;;;;;;5014431;28;20185;-74
2022/01/14 11:47:29;;;;;;;31.63;19.13;;;2.60;99.90;;;;;;5025041;28;20267;-74
2022/01/14 11:49:59;;;;;;;30.27;18.77;;;2.60;99.90;;;;;;5029236;28;20184;-74
2022/01/14 11:52:33;;;;;;;30.37;17.70;;;2.90;99.90;;;;;;5021729;28;20212;-74
2022/01/14 11:54:59;;;;;;;30.87;20.07;;;3.20;99.90;;;;;;5025983;28;20561;-74
2022/01/14 11:57:46;;;;;;;35.93;22.33;;;2.80;99.90;;;;;;5010185;28;20207;-74
2022/01/14 12:00:30;;;;;;;27.60;15.23;;;3.00;99.90;;;;;;5017185;28;20192;-74
2022/01/14 12:03:06;;;;;;;31.23;19.40;;;3.20;99.90;;;;;;5022654;28;20208;-74
2022/01/14 12:05:34;;;;;;;31.97;17.93;;;3.30;99.90;;;;;;5016799;28;20220;-74
2022/01/14 12:08:03;;;;;;;31.33;18.37;;;3.10;99.90;;;;;;5014262;28;20255;-74
2022/01/14 12:10:40;;;;;;;32.07;19.10;;;3.50;99.90;;;;;;5022342;28;20644;-74
2022/01/14 12:16:06;;;;;;;31.87;19.60;;;4.30;99.90;;;;;;5021940;28;20227;-74
2022/01/14 12:19:03;;;;;;;33.47;20.40;;;4.50;99.90;;;;;;5020640;28;20259;-74
2022/01/14 12:21:37;;;;;;;21.13;11.17;;;4.40;99.90;;;;;;5012482;28;20178;-74
2022/01/14 12:24:27;;;;;;;33.90;20.30;;;4.60;99.90;;;;;;5015451;28;20274;-73
2022/01/14 12:26:52;;;;;;;30.93;18.40;;;4.60;99.90;;;;;;5012241;28;20231;-74
2022/01/14 12:29:20;;;;;;;29.73;19.63;;;4.80;99.90;;;;;;5021724;28;20489;-74
2022/01/14 12:32:05;;;;;;;31.40;19.83;;;4.90;99.90;;;;;;5026181;28;20176;-74
2022/01/14 12:34:32;;;;;;;32.87;21.07;;;4.80;99.90;;;;;;5023999;28;20661;-74
2022/01/14 12:36:58;;;;;;;33.57;21.80;;;4.60;99.90;;;;;;5020985;28;20200;-74
2022/01/14 12:39:23;;;;;;;34.60;20.13;;;4.20;99.90;;;;;;5019901;28;20205;-74
2022/01/14 12:41:54;;;;;;;33.17;19.47;;;4.40;99.90;;;;;;5024867;28;20250;-74
2022/01/14 12:44:21;;;;;;;32.50;20.48;;;5.20;99.90;;;;;;5015771;28;20212;-73
2022/01/14 12:49:22;;;;;;;31.77;20.60;;;6.90;99.90;;;;;;5020798;28;20181;-73
2022/01/14 12:52:00;;;;;;;30.90;20.40;;;7.40;99.90;;;;;;5034154;28;20180;-73
2022/01/14 12:54:33;;;;;;;31.52;21.38;;;7.20;99.90;;;;;;5011753;28;20286;-73
2022/01/14 12:56:59;;;;;;;28.10;18.85;;;6.70;99.90;;;;;;5012212;28;20170;-73
2022/01/14 12:59:25;;;;;;;33.08;21.90;;;6.80;99.90;;;;;;5011869;28;20177;-73
2022/01/14 13:01:55;;;;;;;29.23;18.25;;;7.40;99.90;;;;;;5012078;28;20181;-74
2022/01/14 13:04:23;;;;;;;28.75;20.27;;;7.70;99.90;;;;;;5017945;28;20200;-74
2022/01/14 13:06:54;;;;;;;31.83;21.05;;;7.70;99.90;;;;;;5021179;28;20185;-74
2022/01/14 13:09:25;;;;;;;28.98;20.27;;;8.30;99.90;;;;;;5023493;28;20173;-74
2022/01/14 13:12:10;;;;;;;28.00;18.92;;;9.40;99.90;;;;;;5020521;28;20202;-74
2022/01/14 13:15:02;;;;;;;27.50;19.90;;;9.50;99.90;;;;;;5022334;28;20205;-73
2022/01/14 13:17:29;;;;;;;30.77;21.67;;;10.00;99.90;;;;;;5011907;28;20699;-74